Time;durP1;ratioP1;P1;durP2;ratioP2;P2;SDS_P1;SDS_P2;PMS_P1;PMS_P2;Temp;Humidity;BMP_temperature;BMP_pressure;BME280_temperature;BME280_humidity;BME280_pressure;Samples;Min_cycle;Max_cycle;Signal;HPM_P1;HPM_P2
2020/12/31 00:00:33;;;;;;;14.70;8.63;;;;;;;8.69;90.91;98763.36;1826551;78;21057;-63
2020/12/31 00:03:00;;;;;;;18.02;9.83;;;;;;;8.69;90.91;98768.55;1826566;78;21120;-63
2020/12/31 00:05:28;;;;;;;13.45;9.10;;;;;;;8.70;91.11;98770.23;1826485;78;21360;-64
2020/12/31 00:07:56;;;;;;;16.40;9.48;;;;;;;8.71;91.13;98765.44;1826490;78;21080;-63
2020/12/31 00:10:24;;;;;;;20.25;9.38;;;;;;;8.74;91.13;98769.64;1826520;78;21048;-63
2020/12/31 00:12:51;;;;;;;15.23;9.00;;;;;;;8.77;91.14;98773.41;1826496;78;21076;-63
2020/12/31 00:15:21;;;;;;;15.15;8.53;;;;;;;8.80;90.94;98775.83;1826621;78;21555;-64
2020/12/31 00:17:48;;;;;;;14.00;9.68;;;;;;;8.84;90.82;98776.08;1826491;78;21330;-64
2020/12/31 00:20:16;;;;;;;13.30;9.58;;;;;;;8.86;90.70;98782.05;1826565;78;21064;-63
2020/12/31 00:22:43;;;;;;;12.20;9.35;;;;;;;8.87;90.60;98770.77;1826505;78;21485;-63
2020/12/31 00:25:12;;;;;;;14.33;9.18;;;;;;;8.89;90.50;98779.31;1826538;78;21060;-63
2020/12/31 00:27:39;;;;;;;11.48;8.35;;;;;;;8.91;90.25;98778.34;1828344;78;21100;-63
2020/12/31 00:30:16;;;;;;;11.38;7.60;;;;;;;8.91;90.38;98782.69;1829718;78;22175;-63
2020/12/31 00:32:40;;;;;;;13.10;7.80;;;;;;;8.93;90.31;98784.30;1829368;78;21194;-63
2020/12/31 00:35:08;;;;;;;12.05;6.85;;;;;;;8.94;90.25;98787.28;1829721;78;21140;-62
2020/12/31 00:37:36;;;;;;;9.63;6.85;;;;;;;8.97;90.18;98787.60;1829689;78;21060;-63
2020/12/31 00:40:04;;;;;;;8.38;6.17;;;;;;;8.99;90.06;98792.27;1829810;78;21463;-62
2020/12/31 00:42:32;;;;;;;10.90;7.53;;;;;;;9.01;90.02;98790.41;1829640;77;21497;-64
2020/12/31 00:44:59;;;;;;;11.35;8.03;;;;;;;9.02;89.95;98792.09;1829588;78;21112;-63
2020/12/31 00:47:26;;;;;;;9.75;6.85;;;;;;;9.04;89.92;98786.84;1829666;78;21088;-63
2020/12/31 00:49:54;;;;;;;10.88;6.80;;;;;;;9.05;89.86;98785.93;1829690;78;21077;-63
2020/12/31 00:52:21;;;;;;;9.78;7.35;;;;;;;9.06;89.76;98786.32;1829730;78;21049;-63
2020/12/31 00:54:49;;;;;;;11.88;7.55;;;;;;;9.05;89.82;98782.88;1829671;78;21556;-64
2020/12/31 00:57:17;;;;;;;11.48;8.03;;;;;;;9.04;89.86;98784.25;1829640;78;21151;-63
2020/12/31 00:59:45;;;;;;;9.15;6.90;;;;;;;9.02;89.93;98786.07;1829740;78;22492;-63
2020/12/31 01:02:13;;;;;;;9.38;6.87;;;;;;;9.00;89.88;98779.65;1829823;78;21457;-63
2020/12/31 01:04:40;;;;;;;8.45;6.75;;;;;;;9.01;89.89;98786.52;1829700;78;21116;-63
2020/12/31 01:07:08;;;;;;;9.43;6.17;;;;;;;8.99;89.97;98785.30;1829622;78;21540;-63
2020/12/31 01:09:35;;;;;;;8.23;6.33;;;;;;;8.98;89.95;98777.16;1829607;78;21077;-64
2020/12/31 01:12:04;;;;;;;6.90;5.55;;;;;;;8.97;89.83;98781.96;1829619;78;21063;-64
2020/12/31 01:14:31;;;;;;;6.62;5.03;;;;;;;8.96;89.69;98779.44;1829699;78;21488;-63
2020/12/31 01:16:59;;;;;;;7.80;5.30;;;;;;;8.99;89.51;98772.81;1829700;78;21564;-64
2020/12/31 01:19:27;;;;;;;6.95;5.60;;;;;;;8.99;89.29;98770.22;1829650;78;21379;-63
2020/12/31 01:21:55;;;;;;;8.43;6.50;;;;;;;8.99;89.13;98765.03;1829641;78;21057;-63
2020/12/31 01:24:23;;;;;;;7.62;5.17;;;;;;;8.99;89.02;98759.36;1829637;78;21065;-63
2020/12/31 01:26:50;;;;;;;6.05;4.97;;;;;;;9.00;88.71;98761.50;1829461;78;21278;-63
2020/12/31 01:29:18;;;;;;;8.00;5.25;;;;;;;8.96;88.67;98756.94;1829736;78;21119;-64
2020/12/31 01:31:48;;;;;;;7.05;5.58;;;;;;;8.94;88.60;98757.45;1829658;78;21488;-63
2020/12/31 01:34:15;;;;;;;8.20;5.70;;;;;;;8.90;88.72;98752.02;1829700;78;21492;-62
2020/12/31 01:36:43;;;;;;;9.93;5.37;;;;;;;8.90;88.77;98752.02;1829752;78;21057;-63
2020/12/31 01:39:11;;;;;;;6.75;5.45;;;;;;;8.93;88.63;98747.99;1829579;78;21152;-63
2020/12/31 01:41:38;;;;;;;9.73;6.65;;;;;;;8.93;88.58;98746.70;1829663;78;21464;-63
2020/12/31 01:44:09;;;;;;;9.13;7.33;;;;;;;8.92;88.56;98743.72;1829630;77;21193;-63
2020/12/31 01:46:39;;;;;;;8.83;6.50;;;;;;;8.89;88.56;98754.68;1829697;78;21602;-63
2020/12/31 01:49:10;;;;;;;6.58;5.78;;;;;;;8.88;88.67;98758.19;1829656;78;21139;-63
2020/12/31 01:51:39;;;;;;;10.13;6.00;;;;;;;8.90;88.66;98759.80;1829672;78;21112;-63
2020/12/31 01:54:06;;;;;;;8.80;6.42;;;;;;;8.94;88.51;98766.98;1829692;78;21036;-63
2020/12/31 01:56:35;;;;;;;6.75;5.03;;;;;;;8.95;88.23;98756.55;1829650;78;21184;-63
2020/12/31 01:59:02;;;;;;;6.50;4.90;;;;;;;8.93;88.14;98753.18;1829613;78;21501;-63
2020/12/31 02:01:30;;;;;;;6.20;4.70;;;;;;;8.94;88.01;98754.02;1829645;78;21147;-63
2020/12/31 02:03:58;;;;;;;6.70;5.03;;;;;;;8.95;87.96;98755.70;1829636;78;21179;-64
2020/12/31 02:06:28;;;;;;;10.25;7.33;;;;;;;8.98;87.86;98756.41;1829627;78;21146;-63
2020/12/31 02:08:56;;;;;;;10.50;7.90;;;;;;;9.00;87.76;98752.42;1829732;78;21370;-63
2020/12/31 02:11:24;;;;;;;9.63;8.43;;;;;;;9.01;87.73;98748.07;1829586;78;21523;-63
2020/12/31 02:13:53;;;;;;;7.17;5.70;;;;;;;9.01;87.66;98737.24;1829643;78;21069;-62
2020/12/31 02:16:24;;;;;;;6.30;4.78;;;;;;;9.01;87.60;98735.95;1829652;78;21096;-62
2020/12/31 02:19:02;;;;;;;7.22;5.30;;;;;;;9.02;87.48;98738.92;1828924;78;21492;-62
2020/12/31 02:21:35;;;;;;;6.40;5.03;;;;;;;9.03;87.48;98734.58;1825825;78;21210;-63
2020/12/31 02:24:05;;;;;;;8.55;6.33;;;;;;;9.01;87.52;98731.21;1829730;78;21081;-62
2020/12/31 02:26:35;;;;;;;6.58;5.75;;;;;;;8.99;87.47;98739.09;1829649;78;21057;-64
2020/12/31 02:29:04;;;;;;;6.58;5.50;;;;;;;8.98;87.39;98734.36;1829481;78;21052;-64
2020/12/31 02:31:33;;;;;;;10.32;7.28;;;;;;;8.97;87.37;98733.13;1829743;78;21630;-64
2020/12/31 02:34:01;;;;;;;11.48;6.53;;;;;;;8.96;87.41;98728.86;1829626;78;21288;-63
2020/12/31 02:36:31;;;;;;;9.35;6.85;;;;;;;8.94;87.22;98719.84;1829629;78;21555;-63
2020/12/31 02:39:01;;;;;;;7.12;5.90;;;;;;;8.91;87.01;98721.74;1829633;78;21100;-64
2020/12/31 02:41:29;;;;;;;8.00;5.72;;;;;;;8.86;86.95;98722.41;1829639;78;21108;-63
2020/12/31 02:43:57;;;;;;;8.35;6.37;;;;;;;8.81;87.03;98725.66;1829582;77;21132;-63
2020/12/31 02:46:24;;;;;;;10.20;7.15;;;;;;;8.79;87.12;98728.31;1829616;78;21852;-63
2020/12/31 02:48:52;;;;;;;11.12;7.97;;;;;;;8.80;87.17;98723.52;1829827;78;21477;-63
2020/12/31 02:51:19;;;;;;;9.23;7.15;;;;;;;8.82;86.98;98724.74;1829781;78;21144;-63
2020/12/31 02:53:47;;;;;;;9.50;6.22;;;;;;;8.82;86.87;98719.56;1829776;78;21155;-63
2020/12/31 02:56:17;;;;;;;9.00;7.47;;;;;;;8.81;86.76;98723.06;1829785;78;21061;-64
2020/12/31 02:58:48;;;;;;;11.38;8.08;;;;;;;8.77;86.72;98731.92;1829901;78;22277;-63
2020/12/31 03:01:16;;;;;;;10.93;7.85;;;;;;;8.75;86.83;98735.03;1829742;78;21076;-62
2020/12/31 03:03:43;;;;;;;10.50;7.10;;;;;;;8.72;86.86;98729.98;1829801;78;21044;-62
2020/12/31 03:06:11;;;;;;;10.70;7.17;;;;;;;8.71;86.87;98731.73;1829756;78;21116;-62
2020/12/31 03:08:39;;;;;;;11.40;7.62;;;;;;;8.70;86.85;98743.02;1829761;78;21704;-62
2020/12/31 03:11:14;;;;;;;9.58;7.87;;;;;;;8.68;86.79;98744.83;1829879;78;22260;-63
2020/12/31 03:13:42;;;;;;;11.40;7.92;;;;;;;8.64;86.93;98743.28;1829737;78;21072;-63
2020/12/31 03:16:09;;;;;;;11.48;8.43;;;;;;;8.61;86.89;98741.66;1829774;78;21119;-63
2020/12/31 03:18:37;;;;;;;13.83;7.90;;;;;;;8.60;86.90;98745.16;1829778;78;21045;-63
2020/12/31 03:21:06;;;;;;;13.85;8.23;;;;;;;8.62;86.86;98741.20;1829794;78;21065;-63
2020/12/31 03:23:33;;;;;;;11.60;8.78;;;;;;;8.62;86.89;98730.84;1829755;78;23663;-63
2020/12/31 03:26:01;;;;;;;15.23;8.93;;;;;;;8.63;86.76;98727.34;1829724;78;21140;-64
2020/12/31 03:28:28;;;;;;;14.13;8.50;;;;;;;8.62;86.71;98721.31;1827862;78;21136;-63
2020/12/31 03:30:56;;;;;;;11.48;8.95;;;;;;;8.61;86.56;98718.79;1826560;78;21080;-63
2020/12/31 03:33:24;;;;;;;16.52;9.88;;;;;;;8.58;86.57;98723.69;1826615;78;21053;-63
2020/12/31 03:35:52;;;;;;;12.15;8.30;;;;;;;8.58;86.61;98716.36;1826536;78;21477;-63
2020/12/31 03:38:20;;;;;;;14.03;9.43;;;;;;;8.56;86.53;98711.25;1826508;78;21084;-64
2020/12/31 03:40:48;;;;;;;11.70;8.75;;;;;;;8.55;86.51;98703.54;1826660;78;21580;-63
2020/12/31 03:43:16;;;;;;;12.58;8.33;;;;;;;8.53;86.51;98717.02;1826542;77;21049;-62
2020/12/31 03:45:44;;;;;;;13.35;9.98;;;;;;;8.52;86.66;98720.06;1826571;78;21060;-63
2020/12/31 03:48:11;;;;;;;15.35;9.30;;;;;;;8.53;86.57;98712.67;1826504;78;21349;-64
2020/12/31 03:50:39;;;;;;;12.78;9.03;;;;;;;8.53;86.70;98708.78;1826478;78;21651;-63
2020/12/31 03:53:07;;;;;;;11.08;8.35;;;;;;;8.56;86.70;98717.73;1826570;78;21168;-63
2020/12/31 03:55:35;;;;;;;11.53;8.73;;;;;;;8.61;86.62;98725.27;1826524;78;21053;-63
2020/12/31 03:58:02;;;;;;;14.43;9.60;;;;;;;8.64;86.42;98733.75;1826554;78;21484;-62
2020/12/31 04:00:30;;;;;;;12.18;8.85;;;;;;;8.65;86.34;98742.38;1826575;78;21343;-63
2020/12/31 04:02:57;;;;;;;14.15;9.75;;;;;;;8.64;86.23;98738.09;1826445;78;21596;-63
2020/12/31 04:05:24;;;;;;;12.28;8.70;;;;;;;8.59;86.23;98739.59;1826554;78;21080;-63
2020/12/31 04:07:52;;;;;;;13.28;8.60;;;;;;;8.59;86.43;98737.00;1826508;78;21063;-63
2020/12/31 04:10:20;;;;;;;12.58;9.80;;;;;;;8.62;86.26;98739.91;1826594;78;21147;-63
2020/12/31 04:12:48;;;;;;;15.50;10.48;;;;;;;8.62;86.28;98743.34;1826608;78;21564;-63
2020/12/31 04:15:15;;;;;;;16.27;11.08;;;;;;;8.66;86.32;98736.28;1826462;78;21084;-64
2020/12/31 04:17:43;;;;;;;15.35;9.85;;;;;;;8.71;86.11;98742.56;1826526;78;21099;-62
2020/12/31 04:20:10;;;;;;;13.05;9.70;;;;;;;8.70;85.89;98736.98;1826504;78;21985;-62
2020/12/31 04:22:38;;;;;;;14.80;10.23;;;;;;;8.69;85.88;98742.63;1826513;78;21765;-62
2020/12/31 04:25:05;;;;;;;16.55;10.28;;;;;;;8.64;85.81;98738.94;1826528;78;22336;-62
2020/12/31 04:27:33;;;;;;;12.55;11.03;;;;;;;8.61;85.85;98734.34;1826386;78;21111;-63
2020/12/31 04:30:00;;;;;;;15.72;11.60;;;;;;;8.53;85.92;98734.70;1829675;78;21108;-63
2020/12/31 04:32:28;;;;;;;18.70;10.13;;;;;;;8.50;86.09;98734.00;1829687;78;21079;-63
2020/12/31 04:34:56;;;;;;;12.35;8.85;;;;;;;8.50;86.19;98734.00;1829747;78;21055;-63
2020/12/31 04:37:23;;;;;;;14.87;11.20;;;;;;;8.46;86.21;98726.81;1829718;78;21485;-63
2020/12/31 04:39:51;;;;;;;13.25;9.38;;;;;;;8.41;86.34;98735.23;1829635;78;21222;-63
2020/12/31 04:42:18;;;;;;;11.57;9.20;;;;;;;8.38;86.50;98729.38;1829649;77;21116;-63
2020/12/31 04:44:46;;;;;;;11.57;9.20;;;;;;;8.38;86.62;98737.14;1829668;78;21143;-63
2020/12/31 04:47:20;;;;;;;12.93;9.38;;;;;;;8.41;86.61;98740.87;1829687;78;21465;-63
2020/12/31 04:49:51;;;;;;;15.28;10.05;;;;;;;8.43;86.49;98735.16;1829742;78;21354;-62
2020/12/31 04:52:19;;;;;;;11.35;9.63;;;;;;;8.38;86.45;98732.80;1829755;78;21131;-62
2020/12/31 04:54:46;;;;;;;11.55;8.68;;;;;;;8.39;86.42;98753.92;1829793;78;21453;-62
2020/12/31 04:57:14;;;;;;;12.93;9.28;;;;;;;8.40;86.38;98742.62;1829618;78;21882;-62
2020/12/31 04:59:41;;;;;;;18.85;10.43;;;;;;;8.43;86.31;98752.01;1829739;78;21116;-62
2020/12/31 05:02:10;;;;;;;16.52;12.47;;;;;;;8.45;86.36;98750.20;1829753;78;21369;-62
2020/12/31 05:04:38;;;;;;;18.15;12.43;;;;;;;8.49;86.37;98747.41;1829608;78;21166;-63
2020/12/31 05:07:07;;;;;;;38.08;23.30;;;;;;;8.51;86.18;98744.75;1829729;78;21493;-63
2020/12/31 05:09:35;;;;;;;15.15;11.30;;;;;;;8.48;86.18;98749.61;1828397;78;21036;-63
2020/12/31 05:12:02;;;;;;;19.32;13.80;;;;;;;8.45;86.21;98743.27;1829732;78;21040;-63
2020/12/31 05:14:37;;;;;;;20.00;13.20;;;;;;;8.42;86.30;98747.28;1829697;78;22141;-63
2020/12/31 05:17:17;;;;;;;15.05;12.05;;;;;;;8.40;86.35;98755.58;1829599;78;21071;-62
2020/12/31 05:19:45;;;;;;;27.93;18.82;;;;;;;8.38;86.30;98759.17;1829783;78;21453;-63
2020/12/31 05:22:18;;;;;;;14.90;9.78;;;;;;;8.33;86.37;98752.88;1829626;78;21505;-63
2020/12/31 05:24:48;;;;;;;16.77;10.70;;;;;;;8.31;86.48;98746.89;1829855;78;21472;-63
2020/12/31 05:27:25;;;;;;;13.35;10.28;;;;;;;8.30;86.50;98743.91;1829675;78;21323;-63
2020/12/31 05:30:08;;;;;;;16.80;10.48;;;;;;;8.32;86.50;98749.03;1826822;78;21084;-63
2020/12/31 05:32:40;;;;;;;12.90;8.57;;;;;;;8.31;86.47;98750.78;1826810;78;21489;-63
2020/12/31 05:35:15;;;;;;;13.57;8.77;;;;;;;8.25;86.48;98753.63;1826779;78;21170;-63
2020/12/31 05:37:43;;;;;;;15.55;9.65;;;;;;;8.19;86.72;98754.72;1826524;78;21033;-63
2020/12/31 05:40:12;;;;;;;12.93;9.53;;;;;;;8.18;87.01;98760.00;1826440;78;23507;-63
2020/12/31 05:42:42;;;;;;;13.32;9.88;;;;;;;8.19;87.19;98761.69;1826376;77;21136;-62
2020/12/31 05:45:18;;;;;;;13.32;9.18;;;;;;;8.21;87.23;98772.34;1826429;78;21136;-63
2020/12/31 05:47:51;;;;;;;16.00;9.43;;;;;;;8.21;87.34;98781.41;1826447;78;21061;-63
2020/12/31 05:50:24;;;;;;;12.73;9.20;;;;;;;8.22;87.30;98781.80;1826499;78;21108;-63
2020/12/31 05:52:53;;;;;;;13.47;10.87;;;;;;;8.19;87.44;98785.00;1826765;78;21358;-63
2020/12/31 05:55:23;;;;;;;14.78;9.90;;;;;;;8.17;87.62;98790.70;1826431;78;21120;-63
2020/12/31 05:57:57;;;;;;;13.53;9.03;;;;;;;8.21;87.82;98797.41;1826575;78;21591;-62
2020/12/31 06:00:29;;;;;;;10.75;8.80;;;;;;;8.25;87.70;98789.89;1826552;78;21041;-62
2020/12/31 06:02:59;;;;;;;13.98;9.35;;;;;;;8.25;87.63;98795.08;1826588;78;21025;-63
2020/12/31 06:05:28;;;;;;;12.73;10.60;;;;;;;8.26;87.76;98806.67;1826459;78;21360;-63
2020/12/31 06:07:58;;;;;;;14.40;10.93;;;;;;;8.27;87.82;98805.77;1825638;78;21131;-63
2020/12/31 06:10:30;;;;;;;16.80;12.60;;;;;;;8.30;87.69;98803.50;1825923;78;21116;-63
2020/12/31 06:13:00;;;;;;;12.18;9.48;;;;;;;8.30;87.55;98803.05;1825476;78;21251;-64
2020/12/31 06:15:30;;;;;;;16.35;11.22;;;;;;;8.26;87.48;98795.02;1824823;78;21179;-64
2020/12/31 06:18:00;;;;;;;15.00;11.12;;;;;;;8.22;87.67;98794.75;1825442;78;21333;-64
2020/12/31 06:20:31;;;;;;;16.55;11.55;;;;;;;8.21;87.69;98802.58;1825405;78;21607;-64
2020/12/31 06:23:10;;;;;;;18.23;12.58;;;;;;;8.23;87.53;98802.91;1825400;78;21191;-65
2020/12/31 06:25:42;;;;;;;12.95;9.50;;;;;;;8.22;87.50;98798.64;1825746;78;21147;-63
2020/12/31 06:28:17;;;;;;;15.78;11.10;;;;;;;8.23;87.47;98799.03;1825957;78;21135;-64
2020/12/31 06:30:47;;;;;;;15.08;10.53;;;;;;;8.21;87.46;98804.72;1826359;78;21496;-64
2020/12/31 06:33:40;;;;;;;13.32;9.60;;;;;;;8.23;87.61;98804.20;1826370;78;21246;-64
2020/12/31 06:36:09;;;;;;;11.48;9.20;;;;;;;8.23;87.57;98802.91;1826287;78;21140;-64
2020/12/31 06:38:43;;;;;;;12.18;8.85;;;;;;;8.22;87.59;98805.11;1826339;78;21060;-63
2020/12/31 06:41:38;;;;;;;14.18;10.65;;;;;;;8.24;87.61;98806.34;1826159;78;21128;-63
2020/12/31 06:44:13;;;;;;;14.25;11.25;;;;;;;8.26;87.55;98800.20;1826192;77;21351;-63
2020/12/31 06:46:46;;;;;;;9.83;8.73;;;;;;;8.27;87.44;98809.66;1826382;78;21109;-64
2020/12/31 06:49:13;;;;;;;12.82;10.20;;;;;;;8.28;87.36;98807.45;1826474;78;21093;-63
2020/12/31 06:51:41;;;;;;;15.58;12.35;;;;;;;8.32;87.29;98815.09;1826164;78;21132;-65
2020/12/31 06:54:09;;;;;;;11.97;10.80;;;;;;;8.34;87.30;98812.02;1826221;78;21488;-64
2020/12/31 06:56:46;;;;;;;16.05;12.95;;;;;;;8.38;87.33;98812.28;1825577;78;21633;-65
2020/12/31 06:59:34;;;;;;;14.40;10.50;;;;;;;8.38;87.35;98812.28;1825198;78;21676;-64
2020/12/31 07:02:15;;;;;;;13.65;10.68;;;;;;;8.40;87.37;98813.03;1826221;78;21473;-63
2020/12/31 07:04:43;;;;;;;15.93;10.90;;;;;;;8.43;87.34;98829.75;1826420;78;21068;-64
2020/12/31 07:07:26;;;;;;;15.03;10.13;;;;;;;8.46;87.43;98820.55;1826390;78;21572;-64
2020/12/31 07:10:00;;;;;;;14.67;10.50;;;;;;;8.48;87.29;98825.22;1794492;78;21394;-65
2020/12/31 07:12:37;;;;;;;23.70;13.38;;;;;;;8.50;87.31;98833.77;1825379;78;21651;-64
2020/12/31 07:15:08;;;;;;;21.97;12.68;;;;;;;8.47;87.34;98824.83;1825529;78;21120;-64
2020/12/31 07:17:43;;;;;;;13.75;10.03;;;;;;;8.42;87.49;98825.47;1825154;78;21632;-64
2020/12/31 07:20:16;;;;;;;17.62;12.07;;;;;;;8.43;87.69;98827.16;1825557;78;21136;-63
2020/12/31 07:22:45;;;;;;;17.95;12.28;;;;;;;8.46;87.82;98823.14;1825580;78;21359;-63
2020/12/31 07:25:17;;;;;;;14.70;11.08;;;;;;;8.50;87.97;98827.30;1825393;78;21258;-65
2020/12/31 07:27:47;;;;;;;16.70;10.70;;;;;;;8.56;87.89;98820.56;1824859;78;21172;-64
2020/12/31 07:30:18;;;;;;;12.70;9.25;;;;;;;8.62;87.70;98816.38;1826085;78;21452;-63
2020/12/31 07:33:08;;;;;;;12.50;9.33;;;;;;;8.66;87.57;98815.80;1826225;78;21040;-63
2020/12/31 07:35:43;;;;;;;16.23;11.90;;;;;;;8.64;87.60;98818.00;1826452;78;21268;-64
2020/12/31 07:38:15;;;;;;;17.25;12.55;;;;;;;8.68;87.68;98821.30;1825501;78;21587;-64
2020/12/31 07:40:51;;;;;;;14.30;11.68;;;;;;;8.71;87.81;98819.87;1826767;78;21042;-62
2020/12/31 07:43:26;;;;;;;12.30;10.10;;;;;;;8.74;87.76;98823.64;1826453;77;21552;-63
2020/12/31 07:46:00;;;;;;;28.47;18.42;;;;;;;8.78;87.73;98830.38;1826602;78;21477;-64
2020/12/31 07:48:29;;;;;;;18.57;13.98;;;;;;;8.80;87.66;98823.80;1826383;78;21368;-62
2020/12/31 07:51:00;;;;;;;16.20;12.03;;;;;;;8.83;87.74;98832.28;1826391;78;21057;-64
2020/12/31 07:53:32;;;;;;;19.37;13.80;;;;;;;8.83;87.45;98831.45;1826477;78;21170;-65
2020/12/31 07:56:01;;;;;;;14.30;9.68;;;;;;;8.78;87.58;98834.27;1826605;78;21123;-65
2020/12/31 07:58:29;;;;;;;14.38;9.70;;;;;;;8.80;87.71;98829.83;1795037;78;21135;-66
2020/12/31 08:01:00;;;;;;;15.15;9.40;;;;;;;8.83;87.72;98836.63;1826485;78;21560;-65
2020/12/31 08:03:28;;;;;;;14.28;11.08;;;;;;;8.86;87.67;98846.42;1826333;78;21635;-65
2020/12/31 08:05:58;;;;;;;11.73;9.20;;;;;;;8.82;87.57;98840.98;1826498;78;21490;-66
2020/12/31 08:08:26;;;;;;;14.85;10.53;;;;;;;8.82;87.68;98840.98;1824456;78;21766;-67
2020/12/31 08:10:57;;;;;;;12.37;9.50;;;;;;;8.84;87.77;98840.45;1823242;78;21155;-67
2020/12/31 08:13:25;;;;;;;11.80;8.75;;;;;;;8.90;87.72;98843.24;1794025;78;21204;-65
2020/12/31 08:15:54;;;;;;;11.35;10.05;;;;;;;8.96;87.60;98845.57;1826400;78;21080;-66
2020/12/31 08:18:26;;;;;;;13.65;9.45;;;;;;;9.04;87.41;98841.31;1824877;78;21627;-70
2020/12/31 08:20:54;;;;;;;14.93;11.30;;;;;;;9.10;87.14;98839.75;1822744;78;21198;-68
2020/12/31 08:23:27;;;;;;;14.33;8.78;;;;;;;9.16;86.97;98832.99;1822111;78;21170;-66
2020/12/31 08:25:57;;;;;;;11.22;8.43;;;;;;;9.18;86.61;98829.42;1821211;78;21369;-66
2020/12/31 08:28:24;;;;;;;11.48;8.35;;;;;;;9.18;86.55;98830.72;1824065;78;21205;-66
2020/12/31 08:30:52;;;;;;;10.72;8.60;;;;;;;9.21;86.21;98831.00;1825831;78;21067;-64
2020/12/31 08:33:29;;;;;;;12.60;9.88;;;;;;;9.15;86.16;98825.67;1823131;78;21166;-67
2020/12/31 08:35:57;;;;;;;16.00;10.32;;;;;;;9.15;86.12;98830.86;1823148;78;21590;-65
2020/12/31 08:38:28;;;;;;;11.28;8.50;;;;;;;9.10;86.12;98826.33;1825868;78;21355;-66
2020/12/31 08:40:58;;;;;;;13.18;9.70;;;;;;;9.09;86.26;98829.83;1823773;78;21138;-65
2020/12/31 08:43:39;;;;;;;13.53;9.55;;;;;;;9.11;86.40;98831.90;1822647;77;21205;-67
2020/12/31 08:46:11;;;;;;;11.10;8.23;;;;;;;9.18;86.19;98828.58;1822903;78;21182;-66
2020/12/31 08:48:39;;;;;;;11.10;8.33;;;;;;;9.20;86.00;98841.00;1822357;77;21245;-64
2020/12/31 08:51:15;;;;;;;11.38;8.68;;;;;;;9.26;86.01;98837.67;1823070;78;21351;-67
2020/12/31 08:54:00;;;;;;;11.33;8.45;;;;;;;9.34;85.98;98837.34;1822772;78;21496;-65
2020/12/31 08:56:33;;;;;;;13.45;10.28;;;;;;;9.41;85.66;98838.70;1790129;78;22273;-64
2020/12/31 08:59:13;;;;;;;8.25;7.17;;;;;;;9.42;85.44;98836.95;1761966;80;21816;-68
2020/12/31 09:01:45;;;;;;;9.08;6.45;;;;;;;9.41;85.22;98833.97;1752019;80;21235;-66
2020/12/31 09:06:58;;;;;;;12.05;8.60;;;;;;;9.46;85.23;98826.82;1886110;75;21885;-66
2020/12/31 09:09:28;;;;;;;11.40;8.20;;;;;;;9.47;85.16;98828.50;1857324;77;21219;-66
2020/12/31 09:12:03;;;;;;;10.18;7.53;;;;;;;9.49;84.95;98828.82;1860372;77;21415;-66
2020/12/31 09:14:36;;;;;;;11.68;7.83;;;;;;;9.56;84.79;98825.03;1860434;77;21124;-65
2020/12/31 09:17:25;;;;;;;9.63;7.10;;;;;;;9.57;84.62;98829.31;1843100;77;21148;-66
2020/12/31 09:19:55;;;;;;;14.25;9.30;;;;;;;9.57;84.57;98828.47;1757397;80;21069;-64
2020/12/31 09:22:25;;;;;;;12.40;8.18;;;;;;;9.55;84.38;98824.65;1780329;80;21076;-66
2020/12/31 09:24:54;;;;;;;12.88;8.58;;;;;;;9.49;84.44;98824.09;1757662;81;21634;-64
2020/12/31 09:27:24;;;;;;;12.33;8.70;;;;;;;9.44;84.58;98822.16;1779093;80;21203;-65
2020/12/31 09:29:59;;;;;;;9.98;7.62;;;;;;;9.43;84.72;98830.40;1779636;80;21199;-65
2020/12/31 09:32:28;;;;;;;9.28;7.58;;;;;;;9.41;84.96;98821.84;1757459;81;21512;-64
2020/12/31 09:34:58;;;;;;;11.70;9.33;;;;;;;9.44;85.10;98815.20;1779772;80;21612;-65
2020/12/31 09:37:27;;;;;;;14.40;11.28;;;;;;;9.47;84.96;98813.77;1757412;80;21382;-65
2020/12/31 09:39:55;;;;;;;13.53;10.10;;;;;;;9.50;84.86;98816.69;1779903;80;21506;-66
2020/12/31 09:42:23;;;;;;;10.40;8.65;;;;;;;9.49;84.91;98810.65;1757658;80;21103;-67
2020/12/31 09:44:52;;;;;;;13.05;9.90;;;;;;;9.51;84.81;98812.72;1757648;81;21139;-65
2020/12/31 09:47:20;;;;;;;17.62;10.18;;;;;;;9.51;84.65;98811.42;1757758;80;21135;-64
2020/12/31 09:49:48;;;;;;;13.08;8.50;;;;;;;9.51;84.78;98812.72;1748201;82;21885;-64
2020/12/31 09:52:16;;;;;;;9.35;8.18;;;;;;;9.55;84.75;98812.13;1749252;82;21193;-66
2020/12/31 09:54:46;;;;;;;35.13;18.57;;;;;;;9.60;84.62;98816.16;1749101;81;21486;-68
2020/12/31 09:57:13;;;;;;;17.07;10.55;;;;;;;9.66;84.39;98815.03;1765045;81;21243;-66
2020/12/31 09:59:41;;;;;;;13.75;8.85;;;;;;;9.69;84.33;98803.20;1781929;79;21155;-66
2020/12/31 10:02:09;;;;;;;9.68;8.50;;;;;;;9.74;84.17;98810.78;1786813;80;22275;-66
2020/12/31 10:04:37;;;;;;;9.35;8.35;;;;;;;9.79;83.82;98804.42;1787939;80;21189;-66
2020/12/31 10:07:05;;;;;;;10.72;8.85;;;;;;;9.85;83.32;98795.50;1786754;80;21203;-66
2020/12/31 10:09:33;;;;;;;10.53;7.30;;;;;;;9.90;83.22;98789.63;1786100;80;21484;-64
2020/12/31 10:12:03;;;;;;;9.05;7.20;;;;;;;9.98;82.80;98795.30;1788227;80;21115;-65
2020/12/31 10:14:31;;;;;;;25.57;22.93;;;;;;;9.98;82.37;98797.90;1788097;80;22535;-65
2020/12/31 10:17:01;;;;;;;28.57;16.05;;;;;;;9.94;82.24;98795.91;1756355;81;21139;-66
2020/12/31 10:19:28;;;;;;;11.18;9.80;;;;;;;9.93;82.22;98800.72;1787590;80;21118;-66
2020/12/31 10:21:57;;;;;;;7.12;6.42;;;;;;;9.90;82.10;98792.23;1787450;79;21234;-69
2020/12/31 10:24:25;;;;;;;8.15;6.15;;;;;;;9.87;82.15;98785.42;1787080;79;21123;-64
2020/12/31 10:26:53;;;;;;;9.75;7.40;;;;;;;9.87;82.28;98781.98;1788637;78;21352;-65
2020/12/31 10:29:20;;;;;;;10.60;8.50;;;;;;;9.87;82.27;98780.69;1789110;80;21158;-64
2020/12/31 10:31:55;;;;;;;13.35;10.93;;;;;;;9.86;82.44;98773.81;1787636;79;21147;-66
2020/12/31 10:34:24;;;;;;;13.72;9.75;;;;;;;9.85;82.69;98778.62;1786684;79;21123;-65
2020/12/31 10:36:56;;;;;;;13.70;10.00;;;;;;;9.88;83.03;98773.28;1755008;80;21519;-66
2020/12/31 10:39:24;;;;;;;12.58;9.40;;;;;;;9.92;83.13;98766.56;1753592;81;21370;-65
2020/12/31 10:41:52;;;;;;;11.73;9.28;;;;;;;9.95;83.10;98770.31;1786857;80;21214;-67
2020/12/31 10:44:20;;;;;;;13.13;10.13;;;;;;;9.95;83.17;98764.27;1788296;80;21178;-64
2020/12/31 10:46:47;;;;;;;11.08;9.60;;;;;;;9.98;83.21;98764.13;1756470;81;21191;-65
2020/12/31 10:49:15;;;;;;;12.73;8.90;;;;;;;10.03;83.07;98755.16;1789880;80;21051;-65
2020/12/31 10:51:43;;;;;;;10.28;7.35;;;;;;;10.03;82.64;98749.13;1789066;80;23449;-63
2020/12/31 10:54:12;;;;;;;11.05;8.45;;;;;;;9.99;82.66;98745.83;1768988;80;21241;-69
2020/12/31 10:56:40;;;;;;;13.28;7.75;;;;;;;10.02;82.63;98737.89;1788639;80;21218;-64
2020/12/31 10:59:09;;;;;;;11.08;9.00;;;;;;;10.02;82.48;98744.38;1788760;80;21179;-65
2020/12/31 11:01:37;;;;;;;17.10;8.73;;;;;;;10.05;82.38;98731.70;1788573;80;21217;-66
2020/12/31 11:04:05;;;;;;;10.90;7.87;;;;;;;10.08;82.40;98730.25;1787738;80;21576;-66
2020/12/31 11:06:33;;;;;;;10.58;8.25;;;;;;;10.13;82.37;98719.63;1787985;79;21545;-66
2020/12/31 11:09:01;;;;;;;12.23;8.20;;;;;;;10.19;82.21;98718.05;1789334;80;21575;-65
2020/12/31 11:11:31;;;;;;;11.55;7.78;;;;;;;10.19;82.05;98721.46;1789206;80;21099;-66
2020/12/31 11:13:58;;;;;;;8.95;7.08;;;;;;;10.18;82.04;98729.34;1788686;80;21237;-66
2020/12/31 11:16:26;;;;;;;10.23;7.90;;;;;;;10.14;82.04;98722.61;1789213;80;21545;-65
2020/12/31 11:18:53;;;;;;;9.58;7.17;;;;;;;10.11;82.21;98714.97;1789174;80;21200;-66
2020/12/31 11:21:22;;;;;;;16.50;9.83;;;;;;;10.17;82.33;98718.10;1789259;80;21182;-66
2020/12/31 11:23:50;;;;;;;8.03;6.53;;;;;;;10.25;82.12;98717.72;1788980;80;21150;-65
2020/12/31 11:26:20;;;;;;;16.77;7.53;;;;;;;10.30;81.68;98709.23;1789276;80;21214;-67
2020/12/31 11:28:51;;;;;;;9.20;7.25;;;;;;;10.29;81.40;98703.19;1789223;80;21757;-65
2020/12/31 11:31:26;;;;;;;12.05;8.68;;;;;;;10.27;81.42;98701.59;1789211;80;21115;-66
2020/12/31 11:33:55;;;;;;;8.58;6.58;;;;;;;10.27;81.52;98693.79;1745877;80;21610;-66
2020/12/31 11:36:24;;;;;;;9.15;7.00;;;;;;;10.25;81.32;98693.03;1748169;81;21114;-63
2020/12/31 11:38:52;;;;;;;11.73;7.75;;;;;;;10.23;81.57;98696.16;1756466;81;21509;-65
2020/12/31 11:41:20;;;;;;;10.53;7.47;;;;;;;10.20;81.67;98695.86;1757597;81;21386;-64
2020/12/31 11:43:47;;;;;;;15.88;11.45;;;;;;;10.17;81.71;98684.78;1758337;81;21816;-64
2020/12/31 11:46:15;;;;;;;19.82;12.95;;;;;;;10.17;81.84;98689.52;1759125;81;21131;-65